sensor_id;sensor_type;location;lat;lon;timestamp;temperature;humidity
59703;DHT22;45570;48.782;8.332;2023-05-29T05:22:01;12.90;99.90
59703;DHT22;45570;48.782;8.332;2023-05-29T05:24:31;12.80;99.90
59703;DHT22;45570;48.782;8.332;2023-05-29T05:27:04;13.10;99.90
59703;DHT22;45570;48.782;8.332;2023-05-29T05:29:35;13.30;99.90
59703;DHT22;45570;48.782;8.332;2023-05-29T05:32:06;13.70;99.90
59703;DHT22;45570;48.782;8.332;2023-05-29T05:34:36;14.10;99.90
59703;DHT22;45570;48.782;8.332;2023-05-29T05:37:07;14.20;99.90
59703;DHT22;45570;48.782;8.332;2023-05-29T05:39:40;14.40;99.90
59703;DHT22;45570;48.782;8.332;2023-05-29T05:42:10;14.70;99.90
59703;DHT22;45570;48.782;8.332;2023-05-29T05:44:48;14.90;99.90
59703;DHT22;45570;48.782;8.332;2023-05-29T05:47:20;15.10;99.90
59703;DHT22;45570;48.782;8.332;2023-05-29T05:49:50;15.40;99.90
59703;DHT22;45570;48.782;8.332;2023-05-29T05:52:20;15.60;99.90
59703;DHT22;45570;48.782;8.332;2023-05-29T05:54:50;15.80;99.90
59703;DHT22;45570;48.782;8.332;2023-05-29T05:57:20;16.40;99.90
59703;DHT22;45570;48.782;8.332;2023-05-29T05:59:49;16.40;99.90
59703;DHT22;45570;48.782;8.332;2023-05-29T06:02:20;16.50;99.90
59703;DHT22;45570;48.782;8.332;2023-05-29T06:04:51;16.60;99.90
59703;DHT22;45570;48.782;8.332;2023-05-29T06:07:22;16.80;99.90
59703;DHT22;45570;48.782;8.332;2023-05-29T06:09:52;17.00;99.90
59703;DHT22;45570;48.782;8.332;2023-05-29T06:12:22;17.20;99.90
59703;DHT22;45570;48.782;8.332;2023-05-29T06:15:01;17.40;99.90
59703;DHT22;45570;48.782;8.332;2023-05-29T06:17:33;17.60;99.90
59703;DHT22;45570;48.782;8.332;2023-05-29T06:20:05;17.80;99.90
59703;DHT22;45570;48.782;8.332;2023-05-29T06:22:38;18.00;99.90
59703;DHT22;45570;48.782;8.332;2023-05-29T06:25:09;18.00;99.90
59703;DHT22;45570;48.782;8.332;2023-05-29T06:27:40;18.10;99.90
59703;DHT22;45570;48.782;8.332;2023-05-29T06:30:11;18.30;99.90
59703;DHT22;45570;48.782;8.332;2023-05-29T06:32:44;18.60;99.90
59703;DHT22;45570;48.782;8.332;2023-05-29T06:35:14;18.90;99.90
59703;DHT22;45570;48.782;8.332;2023-05-29T06:37:45;19.00;99.90
59703;DHT22;45570;48.782;8.332;2023-05-29T06:40:14;18.90;99.90
59703;DHT22;45570;48.782;8.332;2023-05-29T06:42:45;19.00;99.90
59703;DHT22;45570;48.782;8.332;2023-05-29T06:45:15;19.20;99.90
59703;DHT22;45570;48.782;8.332;2023-05-29T06:47:47;19.40;99.90
59703;DHT22;45570;48.782;8.332;2023-05-29T06:50:16;19.70;99.90
59703;DHT22;45570;48.782;8.332;2023-05-29T06:52:47;20.00;99.90
59703;DHT22;45570;48.782;8.332;2023-05-29T06:55:27;20.10;99.90
59703;DHT22;45570;48.782;8.332;2023-05-29T06:57:58;20.40;99.90
59703;DHT22;45570;48.782;8.332;2023-05-29T07:00:27;20.30;99.90
59703;DHT22;45570;48.782;8.332;2023-05-29T07:03:17;20.50;99.90
59703;DHT22;45570;48.782;8.332;2023-05-29T07:05:48;20.50;99.90
59703;DHT22;45570;48.782;8.332;2023-05-29T07:08:20;20.80;99.90
59703;DHT22;45570;48.782;8.332;2023-05-29T07:10:52;21.10;99.90
59703;DHT22;45570;48.782;8.332;2023-05-29T07:13:25;21.20;99.90
59703;DHT22;45570;48.782;8.332;2023-05-29T07:15:55;21.50;99.90
59703;DHT22;45570;48.782;8.332;2023-05-29T07:18:32;21.80;99.90
59703;DHT22;45570;48.782;8.332;2023-05-29T07:21:02;21.60;99.90
59703;DHT22;45570;48.782;8.332;2023-05-29T07:23:32;21.90;99.90
59703;DHT22;45570;48.782;8.332;2023-05-29T07:26:01;22.10;99.90
59703;DHT22;45570;48.782;8.332;2023-05-29T07:28:31;22.20;99.90
59703;DHT22;45570;48.782;8.332;2023-05-29T07:31:01;22.40;99.90
59703;DHT22;45570;48.782;8.332;2023-05-29T07:33:33;22.50;99.90
59703;DHT22;45570;48.782;8.332;2023-05-29T07:36:03;22.70;99.90
59703;DHT22;45570;48.782;8.332;2023-05-29T07:38:34;23.10;99.90
59703;DHT22;45570;48.782;8.332;2023-05-29T07:41:04;23.20;99.90
59703;DHT22;45570;48.782;8.332;2023-05-29T07:43:37;23.30;99.90
59703;DHT22;45570;48.782;8.332;2023-05-29T07:46:09;23.70;99.90
59703;DHT22;45570;48.782;8.332;2023-05-29T07:48:43;24.00;99.90
59703;DHT22;45570;48.782;8.332;2023-05-29T07:51:13;24.10;99.90
59703;DHT22;45570;48.782;8.332;2023-05-29T07:53:45;24.00;99.90
59703;DHT22;45570;48.782;8.332;2023-05-29T07:56:16;24.00;99.90
59703;DHT22;45570;48.782;8.332;2023-05-29T07:58:48;24.00;99.90
59703;DHT22;45570;48.782;8.332;2023-05-29T08:01:20;24.10;99.90
59703;DHT22;45570;48.782;8.332;2023-05-29T08:03:51;23.70;99.90
59703;DHT22;45570;48.782;8.332;2023-05-29T08:06:28;23.80;99.90
59703;DHT22;45570;48.782;8.332;2023-05-29T08:09:01;24.00;99.90
59703;DHT22;45570;48.782;8.332;2023-05-29T08:11:32;24.40;99.90
59703;DHT22;45570;48.782;8.332;2023-05-29T08:14:03;24.80;99.90
59703;DHT22;45570;48.782;8.332;2023-05-29T08:16:32;25.00;99.90
59703;DHT22;45570;48.782;8.332;2023-05-29T08:19:04;25.00;99.90
59703;DHT22;45570;48.782;8.332;2023-05-29T08:21:34;25.30;99.90
59703;DHT22;45570;48.782;8.332;2023-05-29T08:24:04;25.50;99.90
59703;DHT22;45570;48.782;8.332;2023-05-29T08:26:34;25.60;99.90
59703;DHT22;45570;48.782;8.332;2023-05-29T08:29:04;25.20;99.90
59703;DHT22;45570;48.782;8.332;2023-05-29T08:31:34;24.70;99.90
59703;DHT22;45570;48.782;8.332;2023-05-29T08:34:05;24.40;99.90
59703;DHT22;45570;48.782;8.332;2023-05-29T08:37:14;24.30;99.90
59703;DHT22;45570;48.782;8.332;2023-05-29T08:39:57;24.60;99.90
59703;DHT22;45570;48.782;8.332;2023-05-29T08:43:12;25.00;99.90
59703;DHT22;45570;48.782;8.332;2023-05-29T08:45:44;25.30;99.90
59703;DHT22;45570;48.782;8.332;2023-05-29T08:50:46;25.50;99.90
59703;DHT22;45570;48.782;8.332;2023-05-29T08:53:16;25.40;99.90
59703;DHT22;45570;48.782;8.332;2023-05-29T08:55:47;25.00;99.90
59703;DHT22;45570;48.782;8.332;2023-05-29T08:58:20;25.50;99.90
59703;DHT22;45570;48.782;8.332;2023-05-29T09:01:29;25.50;99.90
59703;DHT22;45570;48.782;8.332;2023-05-29T09:04:54;25.60;99.90
59703;DHT22;45570;48.782;8.332;2023-05-29T09:07:26;25.40;99.90
59703;DHT22;45570;48.782;8.332;2023-05-29T17:28:55;23.70;84.20
59703;DHT22;45570;48.782;8.332;2023-05-29T17:31:39;23.60;84.80
59703;DHT22;45570;48.782;8.332;2023-05-29T17:34:09;23.40;88.90
59703;DHT22;45570;48.782;8.332;2023-05-29T17:36:41;23.30;82.70
59703;DHT22;45570;48.782;8.332;2023-05-29T17:39:10;23.20;81.60
59703;DHT22;45570;48.782;8.332;2023-05-29T17:41:40;23.10;85.80
59703;DHT22;45570;48.782;8.332;2023-05-29T17:44:11;23.10;85.30
59703;DHT22;45570;48.782;8.332;2023-05-29T17:46:40;22.90;88.20
59703;DHT22;45570;48.782;8.332;2023-05-29T17:49:10;22.70;91.70
59703;DHT22;45570;48.782;8.332;2023-05-29T17:55:15;22.50;90.90
59703;DHT22;45570;48.782;8.332;2023-05-29T17:57:47;22.40;86.20
59703;DHT22;45570;48.782;8.332;2023-05-29T18:00:27;22.40;90.40
59703;DHT22;45570;48.782;8.332;2023-05-29T18:02:58;22.30;93.60
59703;DHT22;45570;48.782;8.332;2023-05-29T18:05:35;22.20;91.80
59703;DHT22;45570;48.782;8.332;2023-05-29T18:08:05;22.00;93.30
59703;DHT22;45570;48.782;8.332;2023-05-29T18:10:35;21.90;90.30
59703;DHT22;45570;48.782;8.332;2023-05-29T18:13:08;21.80;93.80
59703;DHT22;45570;48.782;8.332;2023-05-29T18:15:40;21.60;95.90
59703;DHT22;45570;48.782;8.332;2023-05-29T18:18:11;21.50;95.50
59703;DHT22;45570;48.782;8.332;2023-05-29T18:20:58;21.20;95.10
59703;DHT22;45570;48.782;8.332;2023-05-29T18:23:29;21.00;97.70
59703;DHT22;45570;48.782;8.332;2023-05-29T18:25:59;20.80;98.20
59703;DHT22;45570;48.782;8.332;2023-05-29T18:28:45;20.70;98.40
59703;DHT22;45570;48.782;8.332;2023-05-29T18:31:20;20.50;99.10
59703;DHT22;45570;48.782;8.332;2023-05-29T18:33:50;20.30;99.50
59703;DHT22;45570;48.782;8.332;2023-05-29T18:36:20;20.20;94.80
59703;DHT22;45570;48.782;8.332;2023-05-29T18:38:49;20.20;99.10
59703;DHT22;45570;48.782;8.332;2023-05-29T18:41:22;20.10;99.90
59703;DHT22;45570;48.782;8.332;2023-05-29T18:43:52;20.00;99.80
59703;DHT22;45570;48.782;8.332;2023-05-29T18:46:26;19.90;99.90
59703;DHT22;45570;48.782;8.332;2023-05-29T18:48:57;19.80;99.90
59703;DHT22;45570;48.782;8.332;2023-05-29T18:51:26;19.70;99.90
59703;DHT22;45570;48.782;8.332;2023-05-29T18:53:56;19.50;99.90
59703;DHT22;45570;48.782;8.332;2023-05-29T18:56:26;19.40;99.90
59703;DHT22;45570;48.782;8.332;2023-05-29T18:58:56;19.30;99.90
59703;DHT22;45570;48.782;8.332;2023-05-29T19:01:27;19.10;99.90
59703;DHT22;45570;48.782;8.332;2023-05-29T19:03:59;19.00;99.90
59703;DHT22;45570;48.782;8.332;2023-05-29T19:06:30;18.90;99.90
59703;DHT22;45570;48.782;8.332;2023-05-29T19:09:02;18.80;99.90
59703;DHT22;45570;48.782;8.332;2023-05-29T19:11:37;18.70;99.90
59703;DHT22;45570;48.782;8.332;2023-05-29T19:14:07;18.60;99.90
59703;DHT22;45570;48.782;8.332;2023-05-29T19:16:38;18.40;99.90
59703;DHT22;45570;48.782;8.332;2023-05-29T19:19:08;18.30;99.90
59703;DHT22;45570;48.782;8.332;2023-05-29T19:21:39;18.30;99.90
59703;DHT22;45570;48.782;8.332;2023-05-29T19:24:08;18.30;99.90
59703;DHT22;45570;48.782;8.332;2023-05-29T19:26:41;18.10;99.90
59703;DHT22;45570;48.782;8.332;2023-05-29T19:29:11;18.00;99.90
59703;DHT22;45570;48.782;8.332;2023-05-29T19:31:43;17.90;99.90
59703;DHT22;45570;48.782;8.332;2023-05-29T19:34:15;17.70;99.90
59703;DHT22;45570;48.782;8.332;2023-05-29T19:36:46;17.60;99.90
59703;DHT22;45570;48.782;8.332;2023-05-29T19:39:16;17.60;99.90
59703;DHT22;45570;48.782;8.332;2023-05-29T19:41:46;17.50;99.90
59703;DHT22;45570;48.782;8.332;2023-05-29T19:44:20;17.50;99.90
59703;DHT22;45570;48.782;8.332;2023-05-29T19:46:53;17.70;99.90
59703;DHT22;45570;48.782;8.332;2023-05-29T19:49:24;17.80;99.90
59703;DHT22;45570;48.782;8.332;2023-05-29T19:51:54;17.90;99.90
59703;DHT22;45570;48.782;8.332;2023-05-29T19:54:26;17.80;99.90
59703;DHT22;45570;48.782;8.332;2023-05-29T19:56:57;17.80;99.90
59703;DHT22;45570;48.782;8.332;2023-05-29T19:59:26;17.60;99.90
59703;DHT22;45570;48.782;8.332;2023-05-29T20:01:58;17.50;99.90
59703;DHT22;45570;48.782;8.332;2023-05-29T20:04:28;17.20;99.90
59703;DHT22;45570;48.782;8.332;2023-05-29T20:06:58;17.00;99.90
59703;DHT22;45570;48.782;8.332;2023-05-29T20:09:58;16.80;99.90
59703;DHT22;45570;48.782;8.332;2023-05-29T20:12:51;16.50;99.90
59703;DHT22;45570;48.782;8.332;2023-05-29T20:15:20;16.40;99.90
59703;DHT22;45570;48.782;8.332;2023-05-29T20:17:52;16.20;99.90
59703;DHT22;45570;48.782;8.332;2023-05-29T20:20:24;16.10;99.90
59703;DHT22;45570;48.782;8.332;2023-05-29T20:22:53;15.90;99.90
59703;DHT22;45570;48.782;8.332;2023-05-29T20:25:23;15.80;99.90
59703;DHT22;45570;48.782;8.332;2023-05-29T20:28:18;15.60;99.90
59703;DHT22;45570;48.782;8.332;2023-05-29T20:30:48;15.60;99.90
59703;DHT22;45570;48.782;8.332;2023-05-29T20:33:20;15.60;99.90
59703;DHT22;45570;48.782;8.332;2023-05-29T20:35:51;15.30;99.90
59703;DHT22;45570;48.782;8.332;2023-05-29T20:38:21;15.00;99.90
59703;DHT22;45570;48.782;8.332;2023-05-29T20:40:51;14.90;99.90
59703;DHT22;45570;48.782;8.332;2023-05-29T20:43:22;14.80;99.90
59703;DHT22;45570;48.782;8.332;2023-05-29T20:46:06;14.70;99.90
59703;DHT22;45570;48.782;8.332;2023-05-29T20:48:37;14.60;99.90
59703;DHT22;45570;48.782;8.332;2023-05-29T20:51:07;14.50;99.90
59703;DHT22;45570;48.782;8.332;2023-05-29T20:53:36;14.50;99.90
59703;DHT22;45570;48.782;8.332;2023-05-29T20:56:06;14.40;99.90
59703;DHT22;45570;48.782;8.332;2023-05-29T20:58:38;14.40;99.90
59703;DHT22;45570;48.782;8.332;2023-05-29T21:01:08;14.30;99.90
59703;DHT22;45570;48.782;8.332;2023-05-29T21:03:39;14.20;99.90
59703;DHT22;45570;48.782;8.332;2023-05-29T21:06:12;14.10;99.90
59703;DHT22;45570;48.782;8.332;2023-05-29T21:08:41;14.10;99.90
59703;DHT22;45570;48.782;8.332;2023-05-29T21:11:11;14.00;99.90
59703;DHT22;45570;48.782;8.332;2023-05-29T21:13:41;14.00;99.90
